createdAt,value
2023-06-11T00:00:03.539Z,91.16
2023-06-11T00:02:08.904Z,90.27
2023-06-11T00:04:13.785Z,87.31
2023-06-11T00:06:18.712Z,89.25
2023-06-11T00:08:22.179Z,86.10
2023-06-11T00:10:26.570Z,88.37
2023-06-11T00:12:29.598Z,86.29
2023-06-11T00:14:32.502Z,85.62
2023-06-11T00:16:35.504Z,84.67
2023-06-11T00:18:41.760Z,93.60
2023-06-11T00:20:44.787Z,88.69
2023-06-11T00:22:47.624Z,87.03
2023-06-11T00:24:50.858Z,84.31
2023-06-11T00:26:55.097Z,84.85
2023-06-11T00:28:57.978Z,89.50
2023-06-11T00:31:02.363Z,88.02
2023-06-11T00:33:05.468Z,84.89
2023-06-11T00:35:10.825Z,84.05
2023-06-11T00:37:14.693Z,90.36
2023-06-11T00:39:17.899Z,90.09
2023-06-11T00:41:21.597Z,86.84
2023-06-11T00:43:27.524Z,86.38
2023-06-11T00:45:30.673Z,87.23
2023-06-11T00:47:33.954Z,88.87
2023-06-11T00:49:37.092Z,87.07
2023-06-11T00:51:42.495Z,85.48
2023-06-11T00:53:45.501Z,86.42
2023-06-11T00:55:48.889Z,85.00
2023-06-11T00:57:54.361Z,83.80
2023-06-11T00:59:58.814Z,83.19
2023-06-11T01:02:10.250Z,82.85
2023-06-11T01:04:40.783Z,83.00
2023-06-11T01:06:50.925Z,82.85
2023-06-11T01:08:58.654Z,82.30
2023-06-11T01:11:14.958Z,82.35
2023-06-11T01:13:21.246Z,81.79
2023-06-11T01:15:25.701Z,81.45
2023-06-11T01:17:41.931Z,82.89
2023-06-11T01:20:13.326Z,86.30
2023-06-11T01:22:20.870Z,84.58
2023-06-11T01:24:41.407Z,84.00
2023-06-11T01:26:52.066Z,83.20
2023-06-11T01:28:58.215Z,83.42
2023-06-11T01:31:07.620Z,83.47
2023-06-11T01:33:20.955Z,82.98
2023-06-11T01:35:30.955Z,83.65
2023-06-11T01:37:34.170Z,83.61
2023-06-11T01:39:38.550Z,84.61
2023-06-11T01:41:55.893Z,84.81
2023-06-11T01:44:00.981Z,83.65
2023-06-11T01:46:04.873Z,83.40
2023-06-11T01:48:08.492Z,83.06
2023-06-11T01:50:14.346Z,82.85
2023-06-11T01:52:17.961Z,83.15
2023-06-11T01:54:21.000Z,83.40
2023-06-11T01:56:24.344Z,83.15
2023-06-11T01:58:27.165Z,83.47
2023-06-11T02:00:31.947Z,83.41
2023-06-11T02:02:35.058Z,83.38
2023-06-11T02:04:38.481Z,90.81
2023-06-11T02:06:41.533Z,88.35
2023-06-11T02:08:44.809Z,86.14
2023-06-11T02:10:47.830Z,91.20
2023-06-11T02:12:53.249Z,94.54
2023-06-11T02:14:56.775Z,91.43
2023-06-11T02:17:01.036Z,94.33
2023-06-11T02:19:11.116Z,96.93
2023-06-11T02:21:14.040Z,92.32
2023-06-11T02:23:18.383Z,92.18
2023-06-11T02:25:22.072Z,91.28
2023-06-11T02:27:25.667Z,89.29
2023-06-11T02:29:28.976Z,88.11
2023-06-11T02:31:31.987Z,96.27
2023-06-11T02:33:36.337Z,92.02
2023-06-11T02:35:39.290Z,98.00
2023-06-11T02:37:51.447Z,95.39
2023-06-11T02:39:54.406Z,91.84
2023-06-11T02:41:57.477Z,91.86
2023-06-11T02:44:00.449Z,100.00
2023-06-11T02:46:03.573Z,95.57
2023-06-11T02:48:07.478Z,100.00
2023-06-11T02:50:12.063Z,100.00
2023-06-11T02:52:19.080Z,96.21
2023-06-11T02:54:22.711Z,100.00
2023-06-11T02:56:25.690Z,97.07
2023-06-11T02:58:28.517Z,96.39
2023-06-11T03:00:33.035Z,100.00
2023-06-11T03:02:36.049Z,99.62
2023-06-11T03:04:39.011Z,100.00
2023-06-11T03:06:43.416Z,100.00
2023-06-11T03:08:46.426Z,100.00
2023-06-11T03:10:49.293Z,97.44
2023-06-11T03:12:52.281Z,100.00
2023-06-11T03:14:55.197Z,100.00
2023-06-11T03:16:57.976Z,98.07
2023-06-11T03:19:00.837Z,93.75
2023-06-11T03:21:04.464Z,96.47
2023-06-11T03:23:09.079Z,96.26
2023-06-11T03:25:12.132Z,100.00
2023-06-11T03:27:15.124Z,99.96
2023-06-11T03:29:17.992Z,99.75
2023-06-11T03:31:26.435Z,95.86
2023-06-11T03:33:29.387Z,98.13
2023-06-11T03:35:32.422Z,98.01
2023-06-11T03:37:44.750Z,94.86
2023-06-11T03:39:53.877Z,99.79
2023-06-11T03:41:56.655Z,100.00
2023-06-11T03:44:01.404Z,100.00
2023-06-11T03:46:04.579Z,100.00
2023-06-11T03:48:09.367Z,100.00
2023-06-11T03:50:13.539Z,100.00
2023-06-11T03:52:17.470Z,100.00
2023-06-11T03:54:20.346Z,98.02
2023-06-11T03:56:25.940Z,95.70
2023-06-11T03:58:28.827Z,95.07
2023-06-11T04:00:33.276Z,100.00
2023-06-11T04:02:37.301Z,100.00
2023-06-11T04:04:40.637Z,100.00
2023-06-11T04:06:44.275Z,100.00
2023-06-11T04:08:47.899Z,100.00
2023-06-11T04:10:50.840Z,100.00
2023-06-11T04:12:55.643Z,100.00
2023-06-11T04:14:58.438Z,100.00
2023-06-11T04:17:01.839Z,100.00
2023-06-11T04:19:05.147Z,100.00
2023-06-11T04:21:08.409Z,100.00
2023-06-11T04:23:11.199Z,100.00
2023-06-11T04:25:15.040Z,100.00
2023-06-11T04:27:19.180Z,100.00
2023-06-11T04:29:24.208Z,100.00
2023-06-11T04:31:28.616Z,99.54
2023-06-11T04:33:34.546Z,100.00
2023-06-11T04:35:39.659Z,100.00
2023-06-11T04:37:42.788Z,100.00
2023-06-11T04:39:51.015Z,100.00
2023-06-11T04:41:54.843Z,100.00
2023-06-11T04:44:01.946Z,100.00
2023-06-11T04:46:07.792Z,100.00
2023-06-11T04:48:12.164Z,100.00
2023-06-11T04:50:21.986Z,100.00
2023-06-11T04:52:27.685Z,100.00
2023-06-11T04:54:32.782Z,100.00
2023-06-11T04:56:39.032Z,100.00
2023-06-11T04:58:44.488Z,100.00
2023-06-11T05:00:48.424Z,100.00
2023-06-11T05:02:53.060Z,100.00
2023-06-11T05:04:58.801Z,100.00
2023-06-11T05:07:06.318Z,100.00
2023-06-11T05:09:13.031Z,100.00
2023-06-11T05:11:15.808Z,100.00
2023-06-11T05:13:23.351Z,100.00
2023-06-11T05:15:26.353Z,100.00
2023-06-11T05:17:29.816Z,100.00
2023-06-11T05:19:34.309Z,100.00
2023-06-11T05:21:37.945Z,100.00
2023-06-11T05:23:42.593Z,100.00
2023-06-11T05:25:48.632Z,100.00
2023-06-11T05:27:55.643Z,100.00
2023-06-11T05:29:58.864Z,100.00
2023-06-11T05:32:01.970Z,100.00
2023-06-11T05:34:05.993Z,100.00
2023-06-11T05:36:11.753Z,100.00
2023-06-11T05:38:14.874Z,100.00
2023-06-11T05:40:18.873Z,100.00
2023-06-11T05:42:22.016Z,100.00
2023-06-11T05:44:24.998Z,100.00
2023-06-11T05:46:30.033Z,100.00
2023-06-11T05:48:33.691Z,100.00
2023-06-11T05:50:37.296Z,100.00
2023-06-11T05:52:41.725Z,100.00
2023-06-11T05:54:44.804Z,100.00
2023-06-11T05:56:48.830Z,100.00
2023-06-11T05:58:56.070Z,100.00
2023-06-11T06:01:02.258Z,100.00
2023-06-11T06:03:07.298Z,100.00
2023-06-11T06:05:12.166Z,100.00
2023-06-11T06:07:15.304Z,100.00
2023-06-11T06:09:19.508Z,100.00
2023-06-11T06:11:22.704Z,100.00
2023-06-11T06:13:25.770Z,100.00
2023-06-11T06:15:30.209Z,100.00
2023-06-11T06:17:33.215Z,100.00
2023-06-11T06:19:36.157Z,100.00
2023-06-11T06:21:39.127Z,100.00
2023-06-11T06:23:41.987Z,100.00
2023-06-11T06:25:49.576Z,100.00
2023-06-11T06:27:52.584Z,100.00
2023-06-11T06:29:55.792Z,100.00
2023-06-11T06:31:58.691Z,100.00
2023-06-11T06:34:01.718Z,99.05
2023-06-11T06:36:07.655Z,98.87
2023-06-11T06:38:10.542Z,98.93
2023-06-11T06:40:14.316Z,98.25
2023-06-11T06:42:19.320Z,96.14
2023-06-11T06:44:24.969Z,96.12
2023-06-11T06:46:27.795Z,97.06
2023-06-11T06:48:30.838Z,96.87
2023-06-11T06:50:34.315Z,94.84
2023-06-11T06:52:37.378Z,94.88
2023-06-11T06:54:41.041Z,93.75
2023-06-11T06:56:44.390Z,94.98
2023-06-11T06:58:48.530Z,92.85
2023-06-11T07:00:51.421Z,92.26
2023-06-11T07:02:56.525Z,91.23
2023-06-11T07:04:59.927Z,91.18
2023-06-11T07:07:03.071Z,92.94
2023-06-11T07:09:06.525Z,92.79
2023-06-11T07:11:10.562Z,94.47
2023-06-11T07:13:17.737Z,96.10
2023-06-11T07:15:22.699Z,94.77
2023-06-11T07:17:27.116Z,95.09
2023-06-11T07:19:30.768Z,93.59
2023-06-11T07:21:37.048Z,92.21
2023-06-11T07:23:39.951Z,91.53
2023-06-11T07:25:44.381Z,92.36
2023-06-11T07:27:48.546Z,91.34
2023-06-11T07:29:51.635Z,93.06
2023-06-11T07:31:56.068Z,94.06
2023-06-11T07:33:59.031Z,91.59
2023-06-11T07:36:02.430Z,87.83
2023-06-11T07:38:06.865Z,88.87
2023-06-11T07:40:11.252Z,88.78
2023-06-11T07:42:14.273Z,87.33
2023-06-11T07:44:17.253Z,88.35
2023-06-11T07:46:20.251Z,89.63
2023-06-11T07:48:24.409Z,88.74
2023-06-11T07:50:27.699Z,85.30
2023-06-11T07:52:30.643Z,84.22
2023-06-11T07:54:40.288Z,85.24
2023-06-11T07:56:43.108Z,86.00
2023-06-11T07:58:45.864Z,86.57
2023-06-11T08:00:48.703Z,85.03
2023-06-11T08:02:53.658Z,83.34
2023-06-11T08:04:58.156Z,85.47
2023-06-11T08:07:01.397Z,84.19
2023-06-11T08:09:04.198Z,81.61
2023-06-11T08:11:07.258Z,80.07
2023-06-11T08:13:10.061Z,79.21
2023-06-11T08:15:12.946Z,77.86
2023-06-11T08:17:15.726Z,75.36
2023-06-11T08:19:18.523Z,72.64
2023-06-11T08:21:22.607Z,70.88
2023-06-11T08:23:25.478Z,70.43
2023-06-11T08:25:28.260Z,70.25
2023-06-11T08:27:31.088Z,70.65
2023-06-11T08:29:33.872Z,69.48
2023-06-11T08:31:36.642Z,66.84
2023-06-11T08:33:39.375Z,66.75
2023-06-11T08:35:42.211Z,66.72
2023-06-11T08:37:47.192Z,66.03
2023-06-11T08:39:50.038Z,62.22
2023-06-11T08:41:52.830Z,62.81
2023-06-11T08:43:55.704Z,62.68
2023-06-11T08:45:58.477Z,62.68
2023-06-11T08:48:04.483Z,61.52
2023-06-11T08:50:08.991Z,60.56
2023-06-11T08:52:14.496Z,57.75
2023-06-11T08:54:19.555Z,58.52
2023-06-11T08:56:22.464Z,58.04
2023-06-11T08:58:26.577Z,56.23
2023-06-11T09:00:29.365Z,57.97
2023-06-11T09:02:32.267Z,58.40
2023-06-11T09:04:35.089Z,57.58
2023-06-11T09:06:37.880Z,59.19
2023-06-11T09:08:40.646Z,60.75
2023-06-11T09:10:54.004Z,59.77
2023-06-11T09:12:57.949Z,60.56
2023-06-11T09:15:01.218Z,61.00
2023-06-11T09:17:04.014Z,60.86
2023-06-11T09:19:06.821Z,59.40
2023-06-11T09:21:10.839Z,57.47
2023-06-11T09:23:13.593Z,55.40
2023-06-11T09:25:18.079Z,56.13
2023-06-11T09:27:24.066Z,55.00
2023-06-11T09:29:27.993Z,54.50
2023-06-11T09:31:31.149Z,52.19
2023-06-11T09:33:34.373Z,51.73
2023-06-11T09:35:44.958Z,49.85
2023-06-11T09:37:51.093Z,49.22
2023-06-11T09:39:54.008Z,48.74
2023-06-11T09:41:56.986Z,48.35
2023-06-11T09:44:02.199Z,46.76
2023-06-11T09:46:05.236Z,45.60
2023-06-11T09:48:08.248Z,47.83
2023-06-11T09:50:13.229Z,47.73
2023-06-11T09:52:16.671Z,46.50
2023-06-11T09:54:22.250Z,46.59
2023-06-11T09:56:25.846Z,46.79
2023-06-11T09:58:30.475Z,45.56
2023-06-11T10:00:36.493Z,45.24
2023-06-11T10:02:40.369Z,45.95
2023-06-11T10:04:43.443Z,45.18
2023-06-11T10:06:50.580Z,43.13
2023-06-11T10:08:55.432Z,42.88
2023-06-11T10:11:00.369Z,41.91
2023-06-11T10:13:03.798Z,42.66
2023-06-11T10:15:12.752Z,41.07
2023-06-11T10:17:17.200Z,40.66
2023-06-11T10:19:20.465Z,39.52
2023-06-11T10:21:23.245Z,39.06
2023-06-11T10:23:36.522Z,38.48
2023-06-11T10:25:40.832Z,38.48
2023-06-11T10:27:44.776Z,39.28
2023-06-11T10:29:49.160Z,40.46
2023-06-11T10:31:58.376Z,37.77
2023-06-11T10:34:06.806Z,38.15
2023-06-11T10:36:09.740Z,37.54
2023-06-11T10:38:16.228Z,37.21
2023-06-11T10:40:20.842Z,36.12
2023-06-11T10:42:24.948Z,36.32
2023-06-11T10:44:27.929Z,36.52
2023-06-11T10:46:30.788Z,36.80
2023-06-11T10:48:33.784Z,36.18
2023-06-11T10:50:37.990Z,35.29
2023-06-11T10:52:51.110Z,35.06
2023-06-11T10:54:54.187Z,35.86
2023-06-11T10:56:57.017Z,35.40
2023-06-11T10:59:00.179Z,34.70
2023-06-11T11:01:05.421Z,35.31
2023-06-11T11:03:10.199Z,36.01
2023-06-11T11:05:13.580Z,35.10
2023-06-11T11:07:18.391Z,34.10
2023-06-11T11:09:23.034Z,34.09
2023-06-11T11:11:27.697Z,33.56
2023-06-11T11:13:31.165Z,31.57
2023-06-11T11:15:34.014Z,32.25
2023-06-11T11:17:36.988Z,31.75
2023-06-11T11:19:42.891Z,31.80
2023-06-11T11:21:52.698Z,32.72
2023-06-11T11:23:57.052Z,32.71
2023-06-11T11:26:00.222Z,32.32
2023-06-11T11:28:03.067Z,31.24
2023-06-11T11:30:07.244Z,31.35
2023-06-11T11:32:10.313Z,31.12
2023-06-11T11:34:13.780Z,30.73
2023-06-11T11:36:16.574Z,30.41
2023-06-11T11:38:19.713Z,30.44
2023-06-11T11:40:24.492Z,30.33
2023-06-11T11:42:27.462Z,29.66
2023-06-11T11:44:40.302Z,30.35
2023-06-11T11:46:43.263Z,28.05
2023-06-11T11:48:46.263Z,27.50
2023-06-11T11:50:50.509Z,27.60
2023-06-11T11:53:05.128Z,27.99
2023-06-11T11:55:08.890Z,27.33
2023-06-11T11:57:13.348Z,27.89
2023-06-11T11:59:20.086Z,27.58
2023-06-11T12:01:27.601Z,28.68
2023-06-11T12:03:31.092Z,28.38
2023-06-11T12:05:34.000Z,28.13
2023-06-11T12:07:36.735Z,27.60
2023-06-11T12:09:40.507Z,28.18
2023-06-11T12:11:52.180Z,27.69
2023-06-11T12:14:04.425Z,26.91
2023-06-11T12:16:07.317Z,26.83
2023-06-11T12:18:10.061Z,26.64
2023-06-11T12:20:13.861Z,26.55
2023-06-11T12:22:16.905Z,26.45
2023-06-11T12:24:19.755Z,26.35
2023-06-11T12:26:22.658Z,26.47
2023-06-11T12:28:25.398Z,26.35
2023-06-11T12:30:32.110Z,26.61
2023-06-11T12:32:35.292Z,26.02
2023-06-11T12:34:38.022Z,26.26
2023-06-11T12:36:40.872Z,25.41
2023-06-11T12:38:43.551Z,25.99
2023-06-11T12:40:46.282Z,26.39
2023-06-11T12:42:49.643Z,27.11
2023-06-11T12:44:52.373Z,25.68
2023-06-11T12:46:56.384Z,25.40
2023-06-11T12:48:59.175Z,25.60
2023-06-11T12:51:01.867Z,25.83
2023-06-11T12:53:05.537Z,26.02
2023-06-11T12:55:09.137Z,26.03
2023-06-11T12:57:12.663Z,25.65
2023-06-11T12:59:16.362Z,25.33
2023-06-11T13:01:19.354Z,24.35
2023-06-11T13:03:23.435Z,23.33
2023-06-11T13:05:26.191Z,23.44
2023-06-11T13:07:28.950Z,24.08
2023-06-11T13:09:31.802Z,23.97
2023-06-11T13:11:34.517Z,23.35
2023-06-11T13:13:37.251Z,23.52
2023-06-11T13:15:41.273Z,23.45
2023-06-11T13:17:44.020Z,23.15
2023-06-11T13:19:48.179Z,22.46
2023-06-11T13:21:50.962Z,21.89
2023-06-11T13:23:53.712Z,22.09
2023-06-11T13:25:56.418Z,21.72
2023-06-11T13:27:59.275Z,21.39
2023-06-11T13:30:02.574Z,22.26
2023-06-11T13:32:05.947Z,22.31
2023-06-11T13:34:09.288Z,22.01
2023-06-11T13:36:13.493Z,21.48
2023-06-11T13:38:16.195Z,21.35
2023-06-11T13:40:19.982Z,20.29
2023-06-11T13:42:22.793Z,20.19
2023-06-11T13:44:25.653Z,20.44
2023-06-11T13:46:28.576Z,21.59
2023-06-11T13:48:31.291Z,22.31
2023-06-11T13:50:34.645Z,22.29
2023-06-11T13:52:38.683Z,22.15
2023-06-11T13:54:43.542Z,22.14
2023-06-11T13:56:46.720Z,22.68
2023-06-11T13:58:49.926Z,22.95
2023-06-11T14:00:54.704Z,23.16
2023-06-11T14:02:58.476Z,23.57
2023-06-11T14:05:01.257Z,23.32
2023-06-11T14:07:04.986Z,22.11
2023-06-11T14:09:09.460Z,21.57
2023-06-11T14:11:14.454Z,21.69
2023-06-11T14:13:17.305Z,21.24
2023-06-11T14:15:20.227Z,21.91
2023-06-11T14:17:23.012Z,21.77
2023-06-11T14:19:25.777Z,21.11
2023-06-11T14:21:28.611Z,21.16
2023-06-11T14:23:31.326Z,21.56
2023-06-11T14:25:35.410Z,21.58
2023-06-11T14:27:38.522Z,21.28
2023-06-11T14:29:41.263Z,21.12
2023-06-11T14:31:44.881Z,20.76
2023-06-11T14:33:48.308Z,20.79
2023-06-11T14:35:51.677Z,21.25
2023-06-11T14:37:58.147Z,21.95
2023-06-11T14:40:02.186Z,21.54
2023-06-11T14:42:08.128Z,22.10
2023-06-11T14:44:10.916Z,21.17
2023-06-11T14:46:13.744Z,21.24
2023-06-11T14:48:16.596Z,21.27
2023-06-11T14:50:19.407Z,20.94
2023-06-11T14:52:23.211Z,20.87
2023-06-11T14:54:26.115Z,21.75
2023-06-11T14:56:28.857Z,20.83
2023-06-11T14:58:32.923Z,19.62
2023-06-11T15:00:35.746Z,20.36
2023-06-11T15:02:38.500Z,20.14
2023-06-11T15:04:41.306Z,20.28
2023-06-11T15:06:44.064Z,20.97
2023-06-11T15:08:46.837Z,21.08
2023-06-11T15:10:49.611Z,21.29
2023-06-11T15:12:53.454Z,21.31
2023-06-11T15:14:57.654Z,20.54
2023-06-11T15:17:00.467Z,20.70
2023-06-11T15:19:03.229Z,21.41
2023-06-11T15:21:06.062Z,22.13
2023-06-11T15:23:11.172Z,21.61
2023-06-11T15:25:14.347Z,21.24
2023-06-11T15:27:18.357Z,20.96
2023-06-11T15:29:21.268Z,20.27
2023-06-11T15:31:25.385Z,19.63
2023-06-11T15:33:28.201Z,19.15
2023-06-11T15:35:30.960Z,18.76
2023-06-11T15:37:34.019Z,19.33
2023-06-11T15:39:36.849Z,19.86
2023-06-11T15:41:40.096Z,18.99
2023-06-11T15:43:43.030Z,19.66
2023-06-11T15:45:50.412Z,19.64
2023-06-11T15:47:54.694Z,19.17
2023-06-11T15:49:57.562Z,19.15
2023-06-11T15:52:00.676Z,18.70
2023-06-11T15:54:04.174Z,19.04
2023-06-11T15:56:07.069Z,19.05
2023-06-11T15:58:11.905Z,19.50
2023-06-11T16:00:15.901Z,20.13
2023-06-11T16:02:18.699Z,19.27
2023-06-11T16:04:24.088Z,19.32
2023-06-11T16:06:27.105Z,18.70
2023-06-11T16:08:29.855Z,18.58
2023-06-11T16:10:32.667Z,18.39
2023-06-11T16:12:35.478Z,18.97
2023-06-11T16:14:38.261Z,18.88
2023-06-11T16:16:41.064Z,18.80
2023-06-11T16:18:44.001Z,18.33
2023-06-11T16:20:48.113Z,18.17
2023-06-11T16:22:51.124Z,18.90
2023-06-11T16:24:53.858Z,17.99
2023-06-11T16:26:56.646Z,18.68
2023-06-11T16:28:59.562Z,18.89
2023-06-11T16:31:02.638Z,18.82
2023-06-11T16:33:05.491Z,18.88
2023-06-11T16:35:08.993Z,18.58
2023-06-11T16:37:13.402Z,17.89
2023-06-11T16:39:25.550Z,18.44
2023-06-11T16:41:30.242Z,18.54
2023-06-11T16:43:33.066Z,17.89
2023-06-11T16:45:35.968Z,18.44
2023-06-11T16:47:38.751Z,18.12
2023-06-11T16:49:41.528Z,18.25
2023-06-11T16:51:44.385Z,18.21
2023-06-11T16:53:50.745Z,17.94
2023-06-11T16:55:53.475Z,18.25
2023-06-11T16:57:58.137Z,18.22
2023-06-11T17:00:02.222Z,19.14
2023-06-11T17:02:05.500Z,18.63
2023-06-11T17:04:08.449Z,18.10
2023-06-11T17:06:11.332Z,18.27
2023-06-11T17:08:14.376Z,17.92
2023-06-11T17:10:19.135Z,18.18
2023-06-11T17:12:22.036Z,17.73
2023-06-11T17:14:24.884Z,18.08
2023-06-11T17:16:27.859Z,18.37
2023-06-11T17:18:30.654Z,18.20
2023-06-11T17:20:35.039Z,18.36
2023-06-11T17:22:39.024Z,18.64
2023-06-11T17:24:41.926Z,18.10
2023-06-11T17:26:46.009Z,18.48
2023-06-11T17:28:49.118Z,18.57
2023-06-11T17:30:52.216Z,18.69
2023-06-11T17:32:55.048Z,19.29
2023-06-11T17:34:58.102Z,19.34
2023-06-11T17:37:00.893Z,19.27
2023-06-11T17:39:03.726Z,18.48
2023-06-11T17:41:06.529Z,18.47
2023-06-11T17:43:10.738Z,19.59
2023-06-11T17:45:13.738Z,19.62
2023-06-11T17:47:16.641Z,19.62
2023-06-11T17:49:19.449Z,20.47
2023-06-11T17:51:22.196Z,20.54
2023-06-11T17:53:24.926Z,20.37
2023-06-11T17:55:27.792Z,20.58
2023-06-11T17:57:30.581Z,21.18
2023-06-11T17:59:34.729Z,21.47
2023-06-11T18:01:38.378Z,22.15
2023-06-11T18:03:41.193Z,22.53
2023-06-11T18:05:44.057Z,22.52
2023-06-11T18:07:47.403Z,22.64
2023-06-11T18:09:50.536Z,22.66
2023-06-11T18:11:53.471Z,22.59
2023-06-11T18:13:56.256Z,23.33
2023-06-11T18:16:00.665Z,23.58
2023-06-11T18:18:04.342Z,23.23
2023-06-11T18:20:09.839Z,23.87
2023-06-11T18:22:12.638Z,25.85
2023-06-11T18:24:15.528Z,25.75
2023-06-11T18:26:18.522Z,25.57
2023-06-11T18:28:21.372Z,25.59
2023-06-11T18:30:24.499Z,26.05
2023-06-11T18:32:28.718Z,26.50
2023-06-11T18:34:31.505Z,26.87
2023-06-11T18:36:34.705Z,27.68
2023-06-11T18:38:37.667Z,29.15
2023-06-11T18:40:40.538Z,30.02
2023-06-11T18:42:43.451Z,30.14
2023-06-11T18:44:46.668Z,30.49
2023-06-11T18:46:49.514Z,30.72
2023-06-11T18:48:53.625Z,31.02
2023-06-11T18:50:56.407Z,31.09
2023-06-11T18:52:59.224Z,31.36
2023-06-11T18:55:02.054Z,31.90
2023-06-11T18:57:09.223Z,31.93
2023-06-11T18:59:12.045Z,32.34
2023-06-11T19:01:14.885Z,32.43
2023-06-11T19:03:17.919Z,32.75
2023-06-11T19:05:22.327Z,32.54
2023-06-11T19:07:25.285Z,32.97
2023-06-11T19:09:28.080Z,33.93
2023-06-11T19:11:30.955Z,33.86
2023-06-11T19:13:33.956Z,33.90
2023-06-11T19:15:36.761Z,34.28
2023-06-11T19:17:39.688Z,34.54
2023-06-11T19:19:42.513Z,35.11
2023-06-11T19:21:47.773Z,36.77
2023-06-11T19:23:50.714Z,37.63
2023-06-11T19:25:55.539Z,38.83
2023-06-11T19:27:58.349Z,39.39
2023-06-11T19:30:01.170Z,40.40
2023-06-11T19:32:04.663Z,41.10
2023-06-11T19:34:07.911Z,40.48
2023-06-11T19:36:10.844Z,40.51
2023-06-11T19:38:15.076Z,40.99
2023-06-11T19:40:17.946Z,42.22
2023-06-11T19:42:20.725Z,42.44
2023-06-11T19:44:23.545Z,42.41
2023-06-11T19:46:30.025Z,43.38
2023-06-11T19:48:34.541Z,43.37
2023-06-11T19:50:37.390Z,44.37
2023-06-11T19:52:40.336Z,44.87
2023-06-11T19:54:51.369Z,44.91
2023-06-11T19:56:54.807Z,45.16
2023-06-11T19:58:57.755Z,45.77
2023-06-11T20:01:00.775Z,45.92
2023-06-11T20:03:03.587Z,47.12
2023-06-11T20:05:07.614Z,45.08
2023-06-11T20:07:10.658Z,44.75
2023-06-11T20:09:13.757Z,45.22
2023-06-11T20:11:19.167Z,47.11
2023-06-11T20:13:21.947Z,45.99
2023-06-11T20:15:24.745Z,46.05
2023-06-11T20:17:27.576Z,47.40
2023-06-11T20:19:30.853Z,45.54
2023-06-11T20:21:33.649Z,47.24
2023-06-11T20:23:36.960Z,45.09
2023-06-11T20:25:39.711Z,46.80
2023-06-11T20:27:43.989Z,45.89
2023-06-11T20:29:46.902Z,45.85
2023-06-11T20:31:49.762Z,45.71
2023-06-11T20:33:53.008Z,45.33
2023-06-11T20:35:55.771Z,45.61
2023-06-11T20:37:58.556Z,44.61
2023-06-11T20:40:01.345Z,45.24
2023-06-11T20:42:04.630Z,46.78
2023-06-11T20:44:08.834Z,46.54
2023-06-11T20:46:27.444Z,46.67
2023-06-11T20:48:31.276Z,45.38
2023-06-11T20:50:34.248Z,45.07
2023-06-11T20:52:37.091Z,45.49
2023-06-11T20:54:39.890Z,45.59
2023-06-11T20:56:42.758Z,45.20
2023-06-11T20:58:45.558Z,44.98
2023-06-11T21:00:49.783Z,46.90
2023-06-11T21:02:52.689Z,45.95
2023-06-11T21:04:55.595Z,47.32
2023-06-11T21:06:58.413Z,49.02
2023-06-11T21:09:01.388Z,47.36
2023-06-11T21:11:04.241Z,48.40
2023-06-11T21:13:07.040Z,47.56
2023-06-11T21:15:10.449Z,52.32
2023-06-11T21:17:14.677Z,51.95
2023-06-11T21:19:17.606Z,50.38
2023-06-11T21:21:20.514Z,53.19
2023-06-11T21:23:23.336Z,54.27
2023-06-11T21:25:26.115Z,55.41
2023-06-11T21:27:28.942Z,55.38
2023-06-11T21:29:31.796Z,53.16
2023-06-11T21:31:34.683Z,53.37
2023-06-11T21:33:38.820Z,51.27
2023-06-11T21:35:41.710Z,53.86
2023-06-11T21:37:44.544Z,51.80
2023-06-11T21:39:47.380Z,50.89
2023-06-11T21:41:51.703Z,50.44
2023-06-11T21:43:56.214Z,50.42
2023-06-11T21:45:59.744Z,49.66
2023-06-11T21:48:02.620Z,49.27
2023-06-11T21:50:07.807Z,49.32
2023-06-11T21:52:17.891Z,48.95
2023-06-11T21:54:20.843Z,48.91
2023-06-11T21:56:23.682Z,48.64
2023-06-11T21:58:26.497Z,49.00
2023-06-11T22:00:29.353Z,48.70
2023-06-11T22:02:32.328Z,48.58
2023-06-11T22:04:35.164Z,48.24
2023-06-11T22:06:42.911Z,48.41
2023-06-11T22:08:45.808Z,48.72
2023-06-11T22:10:48.625Z,48.46
2023-06-11T22:12:51.375Z,49.07
2023-06-11T22:14:54.625Z,49.04
2023-06-11T22:16:58.908Z,49.22
2023-06-11T22:19:04.108Z,49.09
2023-06-11T22:21:07.674Z,48.61
2023-06-11T22:23:12.018Z,48.94
2023-06-11T22:25:15.050Z,48.73
2023-06-11T22:27:17.936Z,49.06
2023-06-11T22:29:20.896Z,49.28
2023-06-11T22:31:24.339Z,49.05
2023-06-11T22:33:27.200Z,49.28
2023-06-11T22:35:30.057Z,50.49
2023-06-11T22:37:33.870Z,49.47
2023-06-11T22:39:38.007Z,49.26
2023-06-11T22:41:40.823Z,49.70
2023-06-11T22:43:43.676Z,49.24
2023-06-11T22:45:46.518Z,49.20
2023-06-11T22:47:54.632Z,49.41
2023-06-11T22:49:57.817Z,51.78
2023-06-11T22:52:01.230Z,51.73
2023-06-11T22:54:04.958Z,50.71
2023-06-11T22:56:09.205Z,50.65
2023-06-11T22:58:12.042Z,51.95
2023-06-11T23:00:16.973Z,50.73
2023-06-11T23:02:20.386Z,50.34
2023-06-11T23:04:23.505Z,53.40
2023-06-11T23:06:27.957Z,53.83
2023-06-11T23:08:30.942Z,52.82
2023-06-11T23:10:33.818Z,53.24
2023-06-11T23:12:37.992Z,52.86
2023-06-11T23:14:41.136Z,52.43
2023-06-11T23:16:49.161Z,52.72
2023-06-11T23:18:54.550Z,52.13
2023-06-11T23:20:57.711Z,51.88
2023-06-11T23:23:03.414Z,51.58
2023-06-11T23:25:07.981Z,51.40
2023-06-11T23:27:13.297Z,51.51
2023-06-11T23:29:19.653Z,51.80
2023-06-11T23:31:22.816Z,50.42
2023-06-11T23:33:25.805Z,53.07
2023-06-11T23:35:28.608Z,54.30
2023-06-11T23:37:31.617Z,54.40
2023-06-11T23:39:34.494Z,54.36
2023-06-11T23:41:37.479Z,55.64
2023-06-11T23:43:40.609Z,56.43
2023-06-11T23:45:44.994Z,55.38
2023-06-11T23:47:47.944Z,58.13
2023-06-11T23:49:50.747Z,55.36
2023-06-11T23:51:53.833Z,54.42
2023-06-11T23:53:56.724Z,53.08
2023-06-11T23:56:01.391Z,54.57
2023-06-11T23:58:18.169Z,54.58
